52分钟前
罗盘
风向 的 风向 230° 瓦加杜古國際機場 04L/22R
风: 4 千吨, 2 beaufort
0 0 0.17778093859221 500 0.32299085377319 1.500 0.47075341907445 3.000 0.62138884920159 5.000 0.8022287624727 8.000 0.90566318494517 10.000
CAVOK
METAR DFFD 210400Z 23004KT CAVOK 26/23 Q1014 NOSIG

METAR定义 | 嵌入

24小时趋势

航班类别VFRLIFR
温度35 °C24 °C
风速8 千吨0 千吨
能见度10 公里+0 米

更多历史数据

下载我们的安卓应用程序

从你的主屏幕上轻松地访问你的航空天气。
只需一次付费,您就可以获得无广告的体验。

您会帮助我们保持Metar-Taf.com正常运行吗?
您的贡献有助于网站的进一步开发并支付费用。

没有更多广告

您是捐款5美元还是更多?然后,我们将永远不会再向您展示广告,这是我们永恒的感谢!
捐赠前先登录

METAR 瓦加杜古國際機場

瓦加杜古國際機場是Ouagadougou,布基纳法索中的大型机场。 机场有{a,plural,=1{一条跑道} other{#跑道}}: 04L/22R 和 04R/22L

该报告是针对2021年10月21日 04:00, 当地时间上的瓦加杜古國際機場所做的。

机场观察

风来自南西 (230°)方向,速度为4 千吨。

天气为CAVOK。这意味着在5.000 ft或MSA(最低安全高度)以下(以较高者为准)以下没有云。这也意味着没有观测到积雨云或高耸的积云,可见度为10 公里 或者更多或更高。此外,不会有雾,降雨或其他重要天气。

温度和风寒是26 °C。 露点为23 °C,相对湿度为84%。 海平面上的气压为1014 压力 (QNH)。

白天

今天,太阳从05:56升起,在17:44降落。 这适用于瓦加杜古國際機場,世界夏令时可能有所不同。 当地时间与世界标准时间之间的时差为+0 小时。 夏令时目前正在进行中。

公司介绍

我们没有关于这个机场的公司信息。

体会

到Vliegles.nl去找飞行课程,跳伞和其他飞行体验。 浏览页面,了解瓦加杜古國際機場附近所有可用的活动。 你也可以使用搜索功能来寻找你所在地附近的特定飞行课程、跳伞或其他飞行体验。

您是否要在网站上瓦加杜古國際機場飞行的天气? 阅读更多   自由!